sensor_id;sensor_type;location;lat;lon;timestamp;P1;durP1;ratioP1;P2;durP2;ratioP2
51266;SDS011;37338;47.426;19.204;2023-10-31T00:01:22;12.18;;;7.82;;
51266;SDS011;37338;47.426;19.204;2023-10-31T00:03:47;17.83;;;8.15;;
51266;SDS011;37338;47.426;19.204;2023-10-31T00:06:13;17.48;;;7.57;;
51266;SDS011;37338;47.426;19.204;2023-10-31T00:08:38;18.70;;;7.57;;
51266;SDS011;37338;47.426;19.204;2023-10-31T00:11:03;12.05;;;7.28;;
51266;SDS011;37338;47.426;19.204;2023-10-31T00:13:29;10.98;;;6.78;;
51266;SDS011;37338;47.426;19.204;2023-10-31T00:15:54;16.13;;;7.93;;
51266;SDS011;37338;47.426;19.204;2023-10-31T00:18:20;17.73;;;7.97;;
51266;SDS011;37338;47.426;19.204;2023-10-31T00:20:46;13.30;;;7.45;;
51266;SDS011;37338;47.426;19.204;2023-10-31T00:23:11;17.08;;;6.95;;
51266;SDS011;37338;47.426;19.204;2023-10-31T00:25:36;18.90;;;7.68;;
51266;SDS011;37338;47.426;19.204;2023-10-31T00:28:02;16.17;;;7.28;;
51266;SDS011;37338;47.426;19.204;2023-10-31T00:30:27;13.65;;;8.13;;
51266;SDS011;37338;47.426;19.204;2023-10-31T00:32:52;16.30;;;8.30;;
51266;SDS011;37338;47.426;19.204;2023-10-31T00:35:18;13.93;;;7.38;;
51266;SDS011;37338;47.426;19.204;2023-10-31T00:37:43;19.77;;;9.20;;
51266;SDS011;37338;47.426;19.204;2023-10-31T00:40:09;17.02;;;7.38;;
51266;SDS011;37338;47.426;19.204;2023-10-31T00:42:39;16.73;;;8.05;;
51266;SDS011;37338;47.426;19.204;2023-10-31T00:45:06;17.75;;;7.70;;
51266;SDS011;37338;47.426;19.204;2023-10-31T00:47:32;11.55;;;7.10;;
51266;SDS011;37338;47.426;19.204;2023-10-31T00:49:57;11.35;;;7.25;;
51266;SDS011;37338;47.426;19.204;2023-10-31T00:52:23;17.80;;;8.23;;
51266;SDS011;37338;47.426;19.204;2023-10-31T00:54:48;20.27;;;7.85;;
51266;SDS011;37338;47.426;19.204;2023-10-31T00:57:14;14.35;;;8.43;;
51266;SDS011;37338;47.426;19.204;2023-10-31T00:59:39;13.63;;;7.75;;
51266;SDS011;37338;47.426;19.204;2023-10-31T01:02:04;13.77;;;7.53;;
51266;SDS011;37338;47.426;19.204;2023-10-31T01:04:30;17.42;;;9.05;;
51266;SDS011;37338;47.426;19.204;2023-10-31T01:06:56;15.93;;;9.32;;
51266;SDS011;37338;47.426;19.204;2023-10-31T01:09:21;16.55;;;8.20;;
51266;SDS011;37338;47.426;19.204;2023-10-31T01:11:47;16.55;;;8.35;;
51266;SDS011;37338;47.426;19.204;2023-10-31T01:14:12;11.75;;;8.02;;
51266;SDS011;37338;47.426;19.204;2023-10-31T01:16:39;11.90;;;8.07;;
51266;SDS011;37338;47.426;19.204;2023-10-31T01:19:05;12.45;;;7.75;;
51266;SDS011;37338;47.426;19.204;2023-10-31T01:21:30;12.07;;;8.18;;
51266;SDS011;37338;47.426;19.204;2023-10-31T01:23:56;11.90;;;7.38;;
51266;SDS011;37338;47.426;19.204;2023-10-31T01:26:21;18.25;;;7.60;;
51266;SDS011;37338;47.426;19.204;2023-10-31T01:28:47;13.50;;;8.52;;
51266;SDS011;37338;47.426;19.204;2023-10-31T01:31:12;16.70;;;8.07;;
51266;SDS011;37338;47.426;19.204;2023-10-31T01:33:38;16.80;;;8.43;;
51266;SDS011;37338;47.426;19.204;2023-10-31T01:36:03;17.70;;;7.30;;
51266;SDS011;37338;47.426;19.204;2023-10-31T01:38:29;12.48;;;8.05;;
51266;SDS011;37338;47.426;19.204;2023-10-31T01:40:54;12.52;;;7.00;;
51266;SDS011;37338;47.426;19.204;2023-10-31T01:43:29;13.23;;;7.78;;
51266;SDS011;37338;47.426;19.204;2023-10-31T01:45:55;13.45;;;7.35;;
51266;SDS011;37338;47.426;19.204;2023-10-31T01:48:20;17.27;;;8.40;;
51266;SDS011;37338;47.426;19.204;2023-10-31T01:50:46;15.13;;;8.52;;
51266;SDS011;37338;47.426;19.204;2023-10-31T01:53:11;17.38;;;8.27;;
51266;SDS011;37338;47.426;19.204;2023-10-31T01:55:36;15.25;;;8.13;;
51266;SDS011;37338;47.426;19.204;2023-10-31T01:58:02;12.77;;;7.28;;
51266;SDS011;37338;47.426;19.204;2023-10-31T02:00:27;19.60;;;8.15;;
51266;SDS011;37338;47.426;19.204;2023-10-31T02:02:53;15.65;;;7.88;;
51266;SDS011;37338;47.426;19.204;2023-10-31T02:05:19;14.70;;;8.82;;
51266;SDS011;37338;47.426;19.204;2023-10-31T02:07:45;13.60;;;9.02;;
51266;SDS011;37338;47.426;19.204;2023-10-31T02:10:11;12.93;;;7.80;;
51266;SDS011;37338;47.426;19.204;2023-10-31T02:12:36;9.70;;;7.05;;
51266;SDS011;37338;47.426;19.204;2023-10-31T02:15:02;15.75;;;8.25;;
51266;SDS011;37338;47.426;19.204;2023-10-31T02:17:28;13.40;;;7.57;;
51266;SDS011;37338;47.426;19.204;2023-10-31T02:19:54;20.23;;;8.60;;
51266;SDS011;37338;47.426;19.204;2023-10-31T02:22:20;13.10;;;7.57;;
51266;SDS011;37338;47.426;19.204;2023-10-31T02:24:46;13.30;;;6.88;;
51266;SDS011;37338;47.426;19.204;2023-10-31T02:27:11;9.88;;;6.63;;
51266;SDS011;37338;47.426;19.204;2023-10-31T02:29:38;11.23;;;7.43;;
51266;SDS011;37338;47.426;19.204;2023-10-31T02:32:04;11.77;;;6.22;;
51266;SDS011;37338;47.426;19.204;2023-10-31T02:34:30;11.25;;;5.85;;
51266;SDS011;37338;47.426;19.204;2023-10-31T02:36:55;10.52;;;7.05;;
51266;SDS011;37338;47.426;19.204;2023-10-31T02:39:20;17.30;;;7.65;;
51266;SDS011;37338;47.426;19.204;2023-10-31T02:41:46;14.20;;;6.47;;
51266;SDS011;37338;47.426;19.204;2023-10-31T02:44:11;14.25;;;6.07;;
51266;SDS011;37338;47.426;19.204;2023-10-31T02:46:40;13.70;;;6.68;;
51266;SDS011;37338;47.426;19.204;2023-10-31T02:49:05;12.43;;;5.90;;
51266;SDS011;37338;47.426;19.204;2023-10-31T02:51:30;14.05;;;5.78;;
51266;SDS011;37338;47.426;19.204;2023-10-31T02:53:56;13.35;;;6.13;;
51266;SDS011;37338;47.426;19.204;2023-10-31T02:56:21;14.25;;;6.15;;
51266;SDS011;37338;47.426;19.204;2023-10-31T02:58:47;10.43;;;6.07;;
51266;SDS011;37338;47.426;19.204;2023-10-31T03:01:12;12.35;;;6.85;;
51266;SDS011;37338;47.426;19.204;2023-10-31T03:03:37;9.48;;;5.82;;
51266;SDS011;37338;47.426;19.204;2023-10-31T03:06:04;10.52;;;5.55;;
51266;SDS011;37338;47.426;19.204;2023-10-31T03:08:30;13.55;;;6.10;;
51266;SDS011;37338;47.426;19.204;2023-10-31T03:10:55;9.68;;;4.85;;
51266;SDS011;37338;47.426;19.204;2023-10-31T03:13:21;7.78;;;5.13;;
51266;SDS011;37338;47.426;19.204;2023-10-31T03:15:46;10.43;;;5.95;;
51266;SDS011;37338;47.426;19.204;2023-10-31T03:18:12;9.10;;;5.35;;
51266;SDS011;37338;47.426;19.204;2023-10-31T03:20:39;12.23;;;6.68;;
51266;SDS011;37338;47.426;19.204;2023-10-31T03:23:05;12.13;;;5.90;;
51266;SDS011;37338;47.426;19.204;2023-10-31T03:25:30;8.68;;;5.50;;
51266;SDS011;37338;47.426;19.204;2023-10-31T03:27:56;9.70;;;5.10;;
51266;SDS011;37338;47.426;19.204;2023-10-31T03:30:22;10.02;;;5.63;;
51266;SDS011;37338;47.426;19.204;2023-10-31T03:32:49;10.57;;;4.78;;
51266;SDS011;37338;47.426;19.204;2023-10-31T03:35:14;7.90;;;4.40;;
51266;SDS011;37338;47.426;19.204;2023-10-31T03:37:40;7.38;;;4.80;;
51266;SDS011;37338;47.426;19.204;2023-10-31T03:40:08;8.38;;;5.38;;
51266;SDS011;37338;47.426;19.204;2023-10-31T03:42:33;10.93;;;4.45;;
51266;SDS011;37338;47.426;19.204;2023-10-31T03:44:59;10.40;;;5.30;;
51266;SDS011;37338;47.426;19.204;2023-10-31T03:47:24;10.95;;;6.10;;
51266;SDS011;37338;47.426;19.204;2023-10-31T03:49:50;12.18;;;4.70;;
51266;SDS011;37338;47.426;19.204;2023-10-31T03:52:15;13.48;;;4.90;;
51266;SDS011;37338;47.426;19.204;2023-10-31T03:54:40;4.72;;;3.47;;
51266;SDS011;37338;47.426;19.204;2023-10-31T03:57:06;7.72;;;4.53;;
51266;SDS011;37338;47.426;19.204;2023-10-31T03:59:31;8.95;;;4.82;;
51266;SDS011;37338;47.426;19.204;2023-10-31T04:01:56;9.75;;;5.57;;
51266;SDS011;37338;47.426;19.204;2023-10-31T04:04:22;7.25;;;4.35;;
51266;SDS011;37338;47.426;19.204;2023-10-31T04:06:47;8.70;;;5.22;;
51266;SDS011;37338;47.426;19.204;2023-10-31T04:09:13;12.63;;;4.53;;
51266;SDS011;37338;47.426;19.204;2023-10-31T04:11:39;7.88;;;4.82;;
51266;SDS011;37338;47.426;19.204;2023-10-31T04:14:04;9.25;;;5.20;;
51266;SDS011;37338;47.426;19.204;2023-10-31T04:16:31;10.35;;;5.18;;
51266;SDS011;37338;47.426;19.204;2023-10-31T04:18:56;11.00;;;5.47;;
51266;SDS011;37338;47.426;19.204;2023-10-31T04:21:21;9.15;;;4.85;;
51266;SDS011;37338;47.426;19.204;2023-10-31T04:23:47;11.18;;;4.72;;
51266;SDS011;37338;47.426;19.204;2023-10-31T04:26:12;8.63;;;4.72;;
51266;SDS011;37338;47.426;19.204;2023-10-31T04:28:38;6.05;;;3.83;;
51266;SDS011;37338;47.426;19.204;2023-10-31T04:31:04;8.43;;;4.22;;
51266;SDS011;37338;47.426;19.204;2023-10-31T04:33:29;8.65;;;4.47;;
51266;SDS011;37338;47.426;19.204;2023-10-31T04:35:55;9.88;;;5.22;;
51266;SDS011;37338;47.426;19.204;2023-10-31T04:38:20;7.30;;;4.43;;
51266;SDS011;37338;47.426;19.204;2023-10-31T04:40:45;9.30;;;4.32;;
51266;SDS011;37338;47.426;19.204;2023-10-31T04:43:11;9.68;;;4.63;;
51266;SDS011;37338;47.426;19.204;2023-10-31T04:45:37;13.20;;;3.72;;
51266;SDS011;37338;47.426;19.204;2023-10-31T04:48:02;8.90;;;3.63;;
51266;SDS011;37338;47.426;19.204;2023-10-31T04:50:27;4.97;;;3.85;;
51266;SDS011;37338;47.426;19.204;2023-10-31T04:52:53;13.20;;;3.72;;
51266;SDS011;37338;47.426;19.204;2023-10-31T04:55:18;8.95;;;3.85;;
51266;SDS011;37338;47.426;19.204;2023-10-31T04:57:44;5.93;;;3.10;;
51266;SDS011;37338;47.426;19.204;2023-10-31T05:00:09;10.38;;;4.20;;
51266;SDS011;37338;47.426;19.204;2023-10-31T05:02:35;8.57;;;4.20;;
51266;SDS011;37338;47.426;19.204;2023-10-31T05:05:01;17.17;;;4.03;;
51266;SDS011;37338;47.426;19.204;2023-10-31T05:07:26;7.97;;;3.50;;
51266;SDS011;37338;47.426;19.204;2023-10-31T05:09:51;5.30;;;3.33;;
51266;SDS011;37338;47.426;19.204;2023-10-31T05:12:17;8.73;;;4.35;;
51266;SDS011;37338;47.426;19.204;2023-10-31T05:14:42;8.48;;;3.65;;
51266;SDS011;37338;47.426;19.204;2023-10-31T05:17:08;6.28;;;3.65;;
51266;SDS011;37338;47.426;19.204;2023-10-31T05:19:33;5.20;;;3.00;;
51266;SDS011;37338;47.426;19.204;2023-10-31T05:21:59;6.18;;;3.60;;
51266;SDS011;37338;47.426;19.204;2023-10-31T05:24:24;7.65;;;3.22;;
51266;SDS011;37338;47.426;19.204;2023-10-31T05:26:49;10.82;;;3.75;;
51266;SDS011;37338;47.426;19.204;2023-10-31T05:29:15;7.03;;;4.32;;
51266;SDS011;37338;47.426;19.204;2023-10-31T05:31:40;8.57;;;4.25;;
51266;SDS011;37338;47.426;19.204;2023-10-31T05:34:06;7.88;;;3.28;;
51266;SDS011;37338;47.426;19.204;2023-10-31T05:36:32;9.98;;;3.75;;
51266;SDS011;37338;47.426;19.204;2023-10-31T05:38:57;6.65;;;3.58;;
51266;SDS011;37338;47.426;19.204;2023-10-31T05:41:23;7.75;;;3.75;;
51266;SDS011;37338;47.426;19.204;2023-10-31T05:43:48;9.80;;;4.60;;
51266;SDS011;37338;47.426;19.204;2023-10-31T05:46:14;11.27;;;4.80;;
51266;SDS011;37338;47.426;19.204;2023-10-31T05:48:46;6.50;;;3.70;;
51266;SDS011;37338;47.426;19.204;2023-10-31T05:51:15;8.15;;;3.10;;
51266;SDS011;37338;47.426;19.204;2023-10-31T05:53:42;8.52;;;3.88;;
51266;SDS011;37338;47.426;19.204;2023-10-31T05:56:09;7.80;;;4.25;;
51266;SDS011;37338;47.426;19.204;2023-10-31T05:58:36;12.00;;;4.78;;
51266;SDS011;37338;47.426;19.204;2023-10-31T06:01:02;10.60;;;4.05;;
51266;SDS011;37338;47.426;19.204;2023-10-31T06:03:28;6.68;;;3.45;;
51266;SDS011;37338;47.426;19.204;2023-10-31T06:05:53;7.90;;;3.83;;
51266;SDS011;37338;47.426;19.204;2023-10-31T06:08:19;6.50;;;3.90;;
51266;SDS011;37338;47.426;19.204;2023-10-31T06:10:44;8.05;;;3.55;;
51266;SDS011;37338;47.426;19.204;2023-10-31T06:13:09;8.77;;;3.80;;
51266;SDS011;37338;47.426;19.204;2023-10-31T06:15:35;7.97;;;3.63;;
51266;SDS011;37338;47.426;19.204;2023-10-31T06:18:00;7.30;;;3.40;;
51266;SDS011;37338;47.426;19.204;2023-10-31T06:20:26;6.90;;;4.18;;
51266;SDS011;37338;47.426;19.204;2023-10-31T06:22:51;8.55;;;3.85;;
51266;SDS011;37338;47.426;19.204;2023-10-31T06:25:16;10.65;;;4.55;;
51266;SDS011;37338;47.426;19.204;2023-10-31T06:27:42;5.53;;;3.47;;
51266;SDS011;37338;47.426;19.204;2023-10-31T06:30:07;7.72;;;4.63;;
51266;SDS011;37338;47.426;19.204;2023-10-31T06:32:33;10.98;;;3.70;;
51266;SDS011;37338;47.426;19.204;2023-10-31T06:34:59;10.18;;;3.22;;
51266;SDS011;37338;47.426;19.204;2023-10-31T06:37:24;9.68;;;3.72;;
51266;SDS011;37338;47.426;19.204;2023-10-31T06:39:50;6.45;;;2.83;;
51266;SDS011;37338;47.426;19.204;2023-10-31T06:42:16;6.22;;;1.80;;
51266;SDS011;37338;47.426;19.204;2023-10-31T06:44:41;7.78;;;2.30;;
51266;SDS011;37338;47.426;19.204;2023-10-31T06:47:06;4.50;;;1.67;;
51266;SDS011;37338;47.426;19.204;2023-10-31T06:49:32;3.47;;;1.63;;
51266;SDS011;37338;47.426;19.204;2023-10-31T06:51:57;2.50;;;1.73;;
51266;SDS011;37338;47.426;19.204;2023-10-31T06:54:22;6.10;;;1.67;;
51266;SDS011;37338;47.426;19.204;2023-10-31T06:56:48;7.53;;;2.97;;
51266;SDS011;37338;47.426;19.204;2023-10-31T06:59:13;7.03;;;2.40;;
51266;SDS011;37338;47.426;19.204;2023-10-31T07:01:38;5.40;;;1.63;;
51266;SDS011;37338;47.426;19.204;2023-10-31T07:04:04;8.32;;;1.83;;
51266;SDS011;37338;47.426;19.204;2023-10-31T07:06:30;3.95;;;1.30;;
51266;SDS011;37338;47.426;19.204;2023-10-31T07:08:55;4.55;;;1.42;;
51266;SDS011;37338;47.426;19.204;2023-10-31T07:11:22;6.80;;;2.20;;
51266;SDS011;37338;47.426;19.204;2023-10-31T07:13:47;2.78;;;1.52;;
51266;SDS011;37338;47.426;19.204;2023-10-31T07:16:13;2.70;;;1.30;;
51266;SDS011;37338;47.426;19.204;2023-10-31T07:18:38;6.38;;;1.35;;
51266;SDS011;37338;47.426;19.204;2023-10-31T07:21:04;3.40;;;1.17;;
51266;SDS011;37338;47.426;19.204;2023-10-31T07:23:30;4.30;;;1.80;;
51266;SDS011;37338;47.426;19.204;2023-10-31T07:25:55;12.80;;;1.92;;
51266;SDS011;37338;47.426;19.204;2023-10-31T07:28:20;11.48;;;2.47;;
51266;SDS011;37338;47.426;19.204;2023-10-31T07:30:46;7.45;;;1.58;;
51266;SDS011;37338;47.426;19.204;2023-10-31T07:33:11;5.57;;;1.23;;
51266;SDS011;37338;47.426;19.204;2023-10-31T07:35:36;10.80;;;1.27;;
51266;SDS011;37338;47.426;19.204;2023-10-31T07:38:02;5.15;;;1.70;;
51266;SDS011;37338;47.426;19.204;2023-10-31T07:40:28;5.40;;;1.60;;
51266;SDS011;37338;47.426;19.204;2023-10-31T07:42:53;6.50;;;1.42;;
51266;SDS011;37338;47.426;19.204;2023-10-31T07:45:19;16.20;;;1.80;;
51266;SDS011;37338;47.426;19.204;2023-10-31T07:47:44;10.05;;;2.10;;
51266;SDS011;37338;47.426;19.204;2023-10-31T07:50:09;23.70;;;3.15;;
51266;SDS011;37338;47.426;19.204;2023-10-31T07:52:35;18.88;;;2.38;;
51266;SDS011;37338;47.426;19.204;2023-10-31T07:55:00;11.77;;;2.05;;
51266;SDS011;37338;47.426;19.204;2023-10-31T07:57:26;11.93;;;2.33;;
51266;SDS011;37338;47.426;19.204;2023-10-31T07:59:51;24.33;;;2.72;;
51266;SDS011;37338;47.426;19.204;2023-10-31T08:02:16;13.13;;;2.20;;
51266;SDS011;37338;47.426;19.204;2023-10-31T08:04:42;6.97;;;1.50;;
51266;SDS011;37338;47.426;19.204;2023-10-31T08:07:07;5.85;;;1.45;;
51266;SDS011;37338;47.426;19.204;2023-10-31T08:09:32;5.95;;;1.70;;
51266;SDS011;37338;47.426;19.204;2023-10-31T08:11:58;8.25;;;2.40;;
51266;SDS011;37338;47.426;19.204;2023-10-31T08:14:23;3.88;;;1.67;;
51266;SDS011;37338;47.426;19.204;2023-10-31T08:16:49;7.50;;;2.30;;
51266;SDS011;37338;47.426;19.204;2023-10-31T08:19:14;3.35;;;1.40;;
51266;SDS011;37338;47.426;19.204;2023-10-31T08:21:40;4.53;;;1.70;;
51266;SDS011;37338;47.426;19.204;2023-10-31T08:24:05;4.20;;;1.50;;
51266;SDS011;37338;47.426;19.204;2023-10-31T08:26:31;3.20;;;1.85;;
51266;SDS011;37338;47.426;19.204;2023-10-31T08:28:57;7.22;;;1.42;;
51266;SDS011;37338;47.426;19.204;2023-10-31T08:31:23;7.68;;;1.27;;
51266;SDS011;37338;47.426;19.204;2023-10-31T08:33:48;7.55;;;1.33;;
51266;SDS011;37338;47.426;19.204;2023-10-31T08:36:14;7.15;;;1.75;;
51266;SDS011;37338;47.426;19.204;2023-10-31T08:38:39;1.92;;;1.08;;
51266;SDS011;37338;47.426;19.204;2023-10-31T08:41:05;7.78;;;1.25;;
51266;SDS011;37338;47.426;19.204;2023-10-31T08:43:30;3.05;;;1.67;;
51266;SDS011;37338;47.426;19.204;2023-10-31T08:45:55;7.80;;;1.27;;
51266;SDS011;37338;47.426;19.204;2023-10-31T08:48:21;3.50;;;1.48;;
51266;SDS011;37338;47.426;19.204;2023-10-31T08:50:47;4.72;;;2.08;;
51266;SDS011;37338;47.426;19.204;2023-10-31T08:53:12;4.78;;;2.03;;
51266;SDS011;37338;47.426;19.204;2023-10-31T08:55:37;4.82;;;1.80;;
51266;SDS011;37338;47.426;19.204;2023-10-31T08:58:03;5.28;;;0.95;;
51266;SDS011;37338;47.426;19.204;2023-10-31T09:00:28;7.10;;;1.63;;
51266;SDS011;37338;47.426;19.204;2023-10-31T09:02:54;3.20;;;1.10;;
51266;SDS011;37338;47.426;19.204;2023-10-31T09:05:19;9.02;;;3.95;;
51266;SDS011;37338;47.426;19.204;2023-10-31T09:07:45;6.35;;;2.83;;
51266;SDS011;37338;47.426;19.204;2023-10-31T09:10:11;4.25;;;1.98;;
51266;SDS011;37338;47.426;19.204;2023-10-31T09:12:37;5.63;;;1.73;;
51266;SDS011;37338;47.426;19.204;2023-10-31T09:15:02;2.92;;;1.02;;
51266;SDS011;37338;47.426;19.204;2023-10-31T09:17:28;5.38;;;1.80;;
51266;SDS011;37338;47.426;19.204;2023-10-31T09:19:53;2.65;;;1.42;;
51266;SDS011;37338;47.426;19.204;2023-10-31T09:22:19;4.50;;;1.55;;
51266;SDS011;37338;47.426;19.204;2023-10-31T09:24:45;4.05;;;1.13;;
51266;SDS011;37338;47.426;19.204;2023-10-31T09:27:10;5.50;;;2.13;;
51266;SDS011;37338;47.426;19.204;2023-10-31T09:29:35;5.07;;;2.00;;
51266;SDS011;37338;47.426;19.204;2023-10-31T09:32:01;4.70;;;1.20;;
51266;SDS011;37338;47.426;19.204;2023-10-31T09:34:28;2.60;;;1.25;;
51266;SDS011;37338;47.426;19.204;2023-10-31T09:36:53;6.97;;;1.48;;
51266;SDS011;37338;47.426;19.204;2023-10-31T09:39:19;6.55;;;1.23;;
51266;SDS011;37338;47.426;19.204;2023-10-31T09:41:44;6.88;;;1.10;;
51266;SDS011;37338;47.426;19.204;2023-10-31T09:44:10;3.35;;;0.75;;
51266;SDS011;37338;47.426;19.204;2023-10-31T09:46:35;6.00;;;1.45;;
51266;SDS011;37338;47.426;19.204;2023-10-31T09:49:01;6.28;;;1.63;;
51266;SDS011;37338;47.426;19.204;2023-10-31T09:51:27;5.80;;;1.38;;
51266;SDS011;37338;47.426;19.204;2023-10-31T09:53:53;5.68;;;1.58;;
51266;SDS011;37338;47.426;19.204;2023-10-31T09:56:19;9.40;;;1.08;;
51266;SDS011;37338;47.426;19.204;2023-10-31T09:58:45;6.65;;;1.65;;
51266;SDS011;37338;47.426;19.204;2023-10-31T10:01:12;4.28;;;1.23;;
51266;SDS011;37338;47.426;19.204;2023-10-31T10:03:37;1.58;;;0.85;;
51266;SDS011;37338;47.426;19.204;2023-10-31T10:06:03;4.22;;;0.90;;
51266;SDS011;37338;47.426;19.204;2023-10-31T10:08:29;4.20;;;1.10;;
51266;SDS011;37338;47.426;19.204;2023-10-31T10:10:54;2.10;;;0.93;;
51266;SDS011;37338;47.426;19.204;2023-10-31T10:13:20;3.42;;;0.77;;
51266;SDS011;37338;47.426;19.204;2023-10-31T10:15:46;2.45;;;1.15;;
51266;SDS011;37338;47.426;19.204;2023-10-31T10:18:27;6.10;;;2.10;;
51266;SDS011;37338;47.426;19.204;2023-10-31T10:23:25;3.17;;;1.25;;
51266;SDS011;37338;47.426;19.204;2023-10-31T10:25:51;8.95;;;1.58;;
51266;SDS011;37338;47.426;19.204;2023-10-31T10:28:17;3.70;;;1.02;;
51266;SDS011;37338;47.426;19.204;2023-10-31T10:30:47;3.63;;;1.35;;
51266;SDS011;37338;47.426;19.204;2023-10-31T10:33:16;4.28;;;0.88;;
51266;SDS011;37338;47.426;19.204;2023-10-31T10:35:42;3.08;;;1.00;;
51266;SDS011;37338;47.426;19.204;2023-10-31T10:38:12;5.97;;;1.42;;
51266;SDS011;37338;47.426;19.204;2023-10-31T10:40:43;7.05;;;1.60;;
51266;SDS011;37338;47.426;19.204;2023-10-31T10:43:12;4.60;;;1.05;;
51266;SDS011;37338;47.426;19.204;2023-10-31T10:45:41;2.20;;;1.02;;
51266;SDS011;37338;47.426;19.204;2023-10-31T10:48:08;5.03;;;0.93;;
51266;SDS011;37338;47.426;19.204;2023-10-31T10:50:37;5.47;;;1.00;;
51266;SDS011;37338;47.426;19.204;2023-10-31T10:53:14;4.03;;;1.00;;
51266;SDS011;37338;47.426;19.204;2023-10-31T10:55:50;4.53;;;0.98;;
51266;SDS011;37338;47.426;19.204;2023-10-31T11:01:18;7.10;;;1.55;;
51266;SDS011;37338;47.426;19.204;2023-10-31T11:03:45;5.53;;;1.00;;
51266;SDS011;37338;47.426;19.204;2023-10-31T11:06:11;4.35;;;1.35;;
51266;SDS011;37338;47.426;19.204;2023-10-31T11:08:37;10.23;;;0.95;;
51266;SDS011;37338;47.426;19.204;2023-10-31T11:11:03;3.13;;;0.95;;
51266;SDS011;37338;47.426;19.204;2023-10-31T11:13:29;10.23;;;6.18;;
51266;SDS011;37338;47.426;19.204;2023-10-31T11:15:55;8.60;;;3.33;;
51266;SDS011;37338;47.426;19.204;2023-10-31T11:18:22;5.38;;;1.88;;
51266;SDS011;37338;47.426;19.204;2023-10-31T11:20:48;2.15;;;0.80;;
51266;SDS011;37338;47.426;19.204;2023-10-31T11:23:14;6.75;;;1.20;;
51266;SDS011;37338;47.426;19.204;2023-10-31T11:25:42;4.65;;;1.38;;
51266;SDS011;37338;47.426;19.204;2023-10-31T11:28:15;5.85;;;0.90;;
51266;SDS011;37338;47.426;19.204;2023-10-31T11:30:41;2.53;;;1.00;;
51266;SDS011;37338;47.426;19.204;2023-10-31T11:33:13;2.13;;;0.70;;
51266;SDS011;37338;47.426;19.204;2023-10-31T11:35:40;2.67;;;0.60;;
51266;SDS011;37338;47.426;19.204;2023-10-31T11:38:06;2.08;;;0.95;;
51266;SDS011;37338;47.426;19.204;2023-10-31T11:40:33;5.93;;;1.17;;
51266;SDS011;37338;47.426;19.204;2023-10-31T11:43:19;3.72;;;1.10;;
51266;SDS011;37338;47.426;19.204;2023-10-31T11:45:44;9.23;;;1.00;;
51266;SDS011;37338;47.426;19.204;2023-10-31T11:48:12;1.92;;;0.75;;
51266;SDS011;37338;47.426;19.204;2023-10-31T11:50:38;3.15;;;0.88;;
51266;SDS011;37338;47.426;19.204;2023-10-31T11:55:36;5.50;;;0.82;;
51266;SDS011;37338;47.426;19.204;2023-10-31T12:00:46;5.30;;;1.15;;
51266;SDS011;37338;47.426;19.204;2023-10-31T12:03:14;6.47;;;0.88;;
51266;SDS011;37338;47.426;19.204;2023-10-31T12:05:50;2.83;;;0.70;;
51266;SDS011;37338;47.426;19.204;2023-10-31T12:08:28;3.22;;;1.17;;
51266;SDS011;37338;47.426;19.204;2023-10-31T12:13:37;6.88;;;0.98;;
51266;SDS011;37338;47.426;19.204;2023-10-31T12:16:05;4.78;;;1.20;;
51266;SDS011;37338;47.426;19.204;2023-10-31T12:18:31;3.60;;;1.83;;
51266;SDS011;37338;47.426;19.204;2023-10-31T12:20:58;7.43;;;1.50;;
51266;SDS011;37338;47.426;19.204;2023-10-31T12:23:23;5.03;;;1.35;;
51266;SDS011;37338;47.426;19.204;2023-10-31T12:25:52;5.28;;;1.35;;
51266;SDS011;37338;47.426;19.204;2023-10-31T12:28:18;6.55;;;1.23;;
51266;SDS011;37338;47.426;19.204;2023-10-31T12:30:48;5.25;;;1.52;;
51266;SDS011;37338;47.426;19.204;2023-10-31T12:33:16;10.77;;;2.88;;
51266;SDS011;37338;47.426;19.204;2023-10-31T12:35:42;13.23;;;2.80;;
51266;SDS011;37338;47.426;19.204;2023-10-31T12:38:12;6.30;;;1.85;;
51266;SDS011;37338;47.426;19.204;2023-10-31T12:40:38;23.52;;;5.30;;
51266;SDS011;37338;47.426;19.204;2023-10-31T12:43:05;12.85;;;3.10;;
51266;SDS011;37338;47.426;19.204;2023-10-31T12:45:30;18.15;;;4.07;;
51266;SDS011;37338;47.426;19.204;2023-10-31T12:48:09;7.15;;;2.42;;
51266;SDS011;37338;47.426;19.204;2023-10-31T12:50:36;6.22;;;2.60;;
51266;SDS011;37338;47.426;19.204;2023-10-31T12:53:02;6.75;;;2.97;;
51266;SDS011;37338;47.426;19.204;2023-10-31T12:55:28;10.18;;;2.72;;
51266;SDS011;37338;47.426;19.204;2023-10-31T12:57:55;8.00;;;2.67;;
51266;SDS011;37338;47.426;19.204;2023-10-31T13:00:21;7.88;;;2.67;;
51266;SDS011;37338;47.426;19.204;2023-10-31T13:03:11;8.68;;;3.33;;
51266;SDS011;37338;47.426;19.204;2023-10-31T13:05:37;9.98;;;3.00;;
51266;SDS011;37338;47.426;19.204;2023-10-31T13:08:08;13.18;;;3.00;;
51266;SDS011;37338;47.426;19.204;2023-10-31T13:10:38;8.13;;;3.30;;
51266;SDS011;37338;47.426;19.204;2023-10-31T13:13:04;5.63;;;2.40;;
51266;SDS011;37338;47.426;19.204;2023-10-31T13:15:29;5.45;;;2.67;;
51266;SDS011;37338;47.426;19.204;2023-10-31T13:17:54;8.32;;;2.03;;
51266;SDS011;37338;47.426;19.204;2023-10-31T13:20:21;8.90;;;2.28;;
51266;SDS011;37338;47.426;19.204;2023-10-31T13:22:46;6.75;;;2.30;;
51266;SDS011;37338;47.426;19.204;2023-10-31T13:25:12;6.72;;;2.30;;
51266;SDS011;37338;47.426;19.204;2023-10-31T13:27:40;6.70;;;2.60;;
51266;SDS011;37338;47.426;19.204;2023-10-31T13:30:08;4.93;;;2.90;;
51266;SDS011;37338;47.426;19.204;2023-10-31T13:32:34;12.30;;;3.47;;
51266;SDS011;37338;47.426;19.204;2023-10-31T13:35:00;10.30;;;3.40;;
51266;SDS011;37338;47.426;19.204;2023-10-31T13:37:25;9.65;;;3.65;;
51266;SDS011;37338;47.426;19.204;2023-10-31T13:39:51;10.27;;;3.40;;
51266;SDS011;37338;47.426;19.204;2023-10-31T13:42:16;7.30;;;3.22;;
51266;SDS011;37338;47.426;19.204;2023-10-31T13:44:42;6.55;;;3.25;;
51266;SDS011;37338;47.426;19.204;2023-10-31T13:47:08;7.32;;;4.00;;
51266;SDS011;37338;47.426;19.204;2023-10-31T13:49:34;10.82;;;4.10;;
51266;SDS011;37338;47.426;19.204;2023-10-31T13:51:59;13.15;;;4.10;;
51266;SDS011;37338;47.426;19.204;2023-10-31T13:54:25;7.97;;;3.33;;
51266;SDS011;37338;47.426;19.204;2023-10-31T13:56:50;9.55;;;2.53;;
51266;SDS011;37338;47.426;19.204;2023-10-31T13:59:16;5.63;;;2.30;;
51266;SDS011;37338;47.426;19.204;2023-10-31T14:01:43;5.65;;;2.03;;
51266;SDS011;37338;47.426;19.204;2023-10-31T14:04:11;2.50;;;1.48;;
51266;SDS011;37338;47.426;19.204;2023-10-31T14:06:38;3.08;;;1.45;;
51266;SDS011;37338;47.426;19.204;2023-10-31T14:09:04;5.15;;;1.23;;
51266;SDS011;37338;47.426;19.204;2023-10-31T14:11:30;3.95;;;1.00;;
51266;SDS011;37338;47.426;19.204;2023-10-31T14:13:56;4.22;;;1.33;;
51266;SDS011;37338;47.426;19.204;2023-10-31T14:16:25;2.83;;;0.95;;
51266;SDS011;37338;47.426;19.204;2023-10-31T14:18:50;7.40;;;1.90;;
51266;SDS011;37338;47.426;19.204;2023-10-31T14:21:16;4.47;;;2.65;;
51266;SDS011;37338;47.426;19.204;2023-10-31T14:23:41;8.70;;;2.25;;
51266;SDS011;37338;47.426;19.204;2023-10-31T14:26:07;6.43;;;2.50;;
51266;SDS011;37338;47.426;19.204;2023-10-31T14:28:32;6.25;;;3.20;;
51266;SDS011;37338;47.426;19.204;2023-10-31T14:30:58;4.53;;;3.05;;
51266;SDS011;37338;47.426;19.204;2023-10-31T14:33:23;3.75;;;1.63;;
51266;SDS011;37338;47.426;19.204;2023-10-31T14:35:48;3.75;;;2.35;;
51266;SDS011;37338;47.426;19.204;2023-10-31T14:38:14;13.73;;;10.40;;